Time;durP1;ratioP1;P1;durP2;ratioP2;P2;SDS_P1;SDS_P2;PMS_P1;PMS_P2;Temp;Humidity;BMP_temperature;BMP_pressure;BME280_temperature;BME280_humidity;BME280_pressure;Samples;Min_cycle;Max_cycle;Signal;HPM_P1;HPM_P2
2021/06/17 00:01:49;;;;;;;11.07;5.80;;;22.20;99.90;;;;;;5065346;28;20029;-79
2021/06/17 00:04:15;;;;;;;12.20;6.25;;;22.10;99.90;;;;;;5064349;28;20032;-80
2021/06/17 00:06:41;;;;;;;12.13;6.93;;;22.10;99.90;;;;;;5063477;28;20089;-78
2021/06/17 00:09:07;;;;;;;8.73;5.40;;;22.00;99.90;;;;;;5063976;28;20029;-78
2021/06/17 00:11:33;;;;;;;10.77;6.63;;;22.00;99.90;;;;;;5064139;28;20092;-76
2021/06/17 00:13:59;;;;;;;15.48;7.10;;;22.00;99.90;;;;;;5063701;28;20056;-76
2021/06/17 00:16:25;;;;;;;10.45;6.22;;;21.90;99.90;;;;;;5065179;28;20108;-77
2021/06/17 00:18:50;;;;;;;8.02;5.63;;;21.90;99.90;;;;;;5065436;28;20438;-76
2021/06/17 00:21:16;;;;;;;11.00;5.95;;;21.90;99.90;;;;;;5064866;28;20103;-77
2021/06/17 00:23:45;;;;;;;9.07;5.95;;;21.90;99.90;;;;;;5063880;28;20128;-78
2021/06/17 00:26:11;;;;;;;10.60;6.38;;;21.90;99.90;;;;;;5065067;28;20064;-77
2021/06/17 00:28:37;;;;;;;9.70;5.88;;;21.90;99.90;;;;;;5064508;28;20082;-79
2021/06/17 00:31:02;;;;;;;8.82;5.72;;;21.90;99.90;;;;;;5065209;28;20025;-77
2021/06/17 00:33:30;;;;;;;11.73;6.15;;;21.90;99.90;;;;;;5063646;28;20136;-77
2021/06/17 00:35:55;;;;;;;11.30;6.15;;;21.90;99.90;;;;;;5064442;28;20028;-80
2021/06/17 00:38:21;;;;;;;10.50;5.63;;;21.90;99.90;;;;;;5063325;28;20033;-78
2021/06/17 00:40:47;;;;;;;9.27;5.93;;;21.80;99.90;;;;;;5064967;28;20045;-78
2021/06/17 00:43:14;;;;;;;10.18;5.82;;;21.80;99.90;;;;;;5064654;28;20032;-78
2021/06/17 00:45:42;;;;;;;16.35;6.78;;;21.70;99.90;;;;;;5065116;28;20090;-78
2021/06/17 00:48:09;;;;;;;9.88;6.18;;;21.70;99.90;;;;;;5062846;28;20036;-77
2021/06/17 00:50:41;;;;;;;12.07;6.90;;;21.60;99.90;;;;;;5065066;28;20051;-77
2021/06/17 00:53:13;;;;;;;10.60;6.00;;;21.60;99.90;;;;;;5064915;28;20473;-79
2021/06/17 00:55:41;;;;;;;17.45;6.32;;;21.60;99.90;;;;;;5063580;28;20024;-77
2021/06/17 00:58:07;;;;;;;11.27;6.30;;;21.60;99.90;;;;;;5064777;28;20029;-79
2021/06/17 01:00:34;;;;;;;9.55;5.68;;;21.60;99.90;;;;;;5063476;28;20040;-78
2021/06/17 01:03:00;;;;;;;8.40;5.35;;;21.60;99.90;;;;;;5062960;28;20028;-78
2021/06/17 01:05:26;;;;;;;11.48;5.55;;;21.60;99.90;;;;;;5063143;28;20040;-79
2021/06/17 01:08:06;;;;;;;13.68;6.57;;;21.50;99.90;;;;;;5063181;28;20025;-78
2021/06/17 01:10:38;;;;;;;10.85;6.18;;;21.50;99.90;;;;;;5064260;28;20145;-77
2021/06/17 01:13:18;;;;;;;8.90;5.38;;;21.60;99.90;;;;;;5065072;28;20444;-77
2021/06/17 01:15:51;;;;;;;9.98;5.65;;;21.60;99.90;;;;;;5064150;28;20025;-77
2021/06/17 01:18:20;;;;;;;12.00;7.20;;;21.60;99.90;;;;;;5064351;28;20029;-79
2021/06/17 01:20:57;;;;;;;10.73;6.70;;;21.60;99.90;;;;;;5063140;28;20041;-79
2021/06/17 01:24:00;;;;;;;9.82;6.22;;;21.60;99.90;;;;;;5064330;28;20025;-78
2021/06/17 01:26:48;;;;;;;11.25;6.13;;;21.50;99.90;;;;;;5064641;28;20291;-79
2021/06/17 01:29:21;;;;;;;11.38;6.47;;;21.50;99.90;;;;;;5064466;28;20032;-78
2021/06/17 01:31:46;;;;;;;9.77;5.78;;;21.50;99.90;;;;;;5067826;28;20092;-78
2021/06/17 01:34:13;;;;;;;11.60;7.15;;;21.40;99.90;;;;;;5068144;28;20052;-78
2021/06/17 01:36:48;;;;;;;12.50;5.60;;;21.40;99.90;;;;;;5068475;28;20036;-78
2021/06/17 01:39:15;;;;;;;10.07;6.03;;;21.40;99.90;;;;;;5066073;28;20047;-78
2021/06/17 01:41:46;;;;;;;12.60;6.55;;;21.30;99.90;;;;;;5064361;28;20083;-78
2021/06/17 01:44:13;;;;;;;10.85;6.57;;;21.30;99.90;;;;;;5054871;28;20090;-78
2021/06/17 01:46:40;;;;;;;9.73;5.97;;;21.30;99.90;;;;;;5048511;28;20022;-77
2021/06/17 01:49:07;;;;;;;12.38;6.88;;;21.20;99.90;;;;;;5066514;28;20455;-78
2021/06/17 01:51:35;;;;;;;10.68;6.45;;;21.20;99.90;;;;;;5068249;28;20477;-77
2021/06/17 01:54:02;;;;;;;12.52;6.90;;;21.20;99.90;;;;;;5068522;28;20090;-80
2021/06/17 01:56:28;;;;;;;10.93;6.63;;;21.20;99.90;;;;;;5065282;28;20400;-77
2021/06/17 01:58:58;;;;;;;10.55;6.22;;;21.10;99.90;;;;;;5047827;28;20034;-77
2021/06/17 02:01:30;;;;;;;12.05;5.97;;;21.10;99.90;;;;;;5047831;28;20494;-78
2021/06/17 02:03:56;;;;;;;10.15;5.95;;;21.10;99.90;;;;;;5063076;28;20055;-77
2021/06/17 02:06:22;;;;;;;14.82;6.90;;;21.00;99.90;;;;;;5047867;28;20041;-77
2021/06/17 02:08:52;;;;;;;14.30;6.95;;;21.00;99.90;;;;;;5046703;28;20025;-76
2021/06/17 02:11:19;;;;;;;9.05;5.93;;;21.00;99.90;;;;;;5047562;28;20033;-78
2021/06/17 02:13:45;;;;;;;11.60;6.15;;;21.00;99.90;;;;;;5047817;28;20021;-77
2021/06/17 02:16:11;;;;;;;10.18;6.40;;;21.00;99.90;;;;;;5046541;28;20033;-77
2021/06/17 02:18:39;;;;;;;13.82;6.13;;;20.90;99.90;;;;;;5058393;28;20029;-77
2021/06/17 02:21:07;;;;;;;10.52;6.60;;;20.90;99.90;;;;;;5067992;28;20422;-75
2021/06/17 02:23:34;;;;;;;14.02;6.03;;;20.90;99.90;;;;;;5067945;28;20025;-78
2021/06/17 02:26:01;;;;;;;10.52;6.65;;;20.80;99.90;;;;;;5067342;28;20025;-76
2021/06/17 02:28:32;;;;;;;9.52;6.13;;;20.90;99.90;;;;;;5066160;28;20041;-77
2021/06/17 02:31:01;;;;;;;9.52;6.88;;;20.80;99.90;;;;;;5065870;28;20028;-77
2021/06/17 02:33:28;;;;;;;13.30;6.63;;;20.80;99.90;;;;;;5065951;28;20175;-77
2021/06/17 02:35:55;;;;;;;13.95;6.60;;;20.70;99.90;;;;;;5066047;28;20037;-77
2021/06/17 02:38:28;;;;;;;12.93;7.43;;;20.80;99.90;;;;;;5067154;28;20047;-78
2021/06/17 02:40:58;;;;;;;9.68;5.82;;;20.70;99.90;;;;;;5067123;28;20029;-77
2021/06/17 02:43:24;;;;;;;9.23;5.38;;;20.70;99.90;;;;;;5064898;28;20093;-76
2021/06/17 02:45:50;;;;;;;10.00;5.88;;;20.70;99.90;;;;;;5066967;28;20496;-76
2021/06/17 02:48:17;;;;;;;12.80;6.07;;;20.70;99.90;;;;;;5066946;28;20045;-78
2021/06/17 02:50:43;;;;;;;12.07;6.53;;;20.70;99.90;;;;;;5067242;28;20096;-77
2021/06/17 02:53:10;;;;;;;9.93;6.43;;;20.70;99.90;;;;;;5066925;28;20039;-76
2021/06/17 02:55:38;;;;;;;12.70;6.38;;;20.60;99.90;;;;;;5067331;28;20117;-78
2021/06/17 02:58:28;;;;;;;13.95;6.45;;;20.60;99.90;;;;;;5067012;28;20064;-79
2021/06/17 03:01:00;;;;;;;9.45;6.40;;;20.50;99.90;;;;;;5065523;28;20038;-76
2021/06/17 03:03:33;;;;;;;11.30;6.55;;;20.50;99.90;;;;;;5065527;28;20029;-76
2021/06/17 03:06:08;;;;;;;18.33;6.93;;;20.50;99.90;;;;;;5062132;28;20143;-77
2021/06/17 03:08:42;;;;;;;9.25;6.28;;;20.40;99.90;;;;;;5047245;28;20041;-77
2021/06/17 03:11:12;;;;;;;12.02;6.70;;;20.40;99.90;;;;;;5047045;28;20060;-76
2021/06/17 03:13:42;;;;;;;11.52;6.78;;;20.40;99.90;;;;;;5046662;28;20033;-77
2021/06/17 03:16:12;;;;;;;17.15;7.55;;;20.40;99.90;;;;;;5046998;28;20060;-78
2021/06/17 03:18:39;;;;;;;12.25;7.20;;;20.40;99.90;;;;;;5046600;28;20052;-78
2021/06/17 03:21:07;;;;;;;9.93;6.18;;;20.30;99.90;;;;;;5046729;28;20067;-76
2021/06/17 03:23:33;;;;;;;10.52;6.63;;;20.30;99.90;;;;;;5046728;28;20037;-75
2021/06/17 03:26:03;;;;;;;12.25;6.78;;;20.30;99.90;;;;;;5061498;28;20095;-76
2021/06/17 03:28:30;;;;;;;11.00;6.40;;;20.30;99.90;;;;;;5045017;28;20024;-78
2021/06/17 03:30:57;;;;;;;14.23;7.45;;;20.20;99.90;;;;;;5045250;28;20029;-76
2021/06/17 03:33:26;;;;;;;17.40;7.40;;;20.20;99.90;;;;;;5061482;28;20032;-77
2021/06/17 03:35:53;;;;;;;13.52;6.93;;;20.20;99.90;;;;;;5061817;28;20036;-77
2021/06/17 03:38:21;;;;;;;12.00;7.30;;;20.20;99.90;;;;;;5061445;28;20066;-78
2021/06/17 03:40:48;;;;;;;15.23;6.75;;;20.20;99.90;;;;;;5044583;28;20045;-76
2021/06/17 03:43:16;;;;;;;11.82;6.97;;;20.10;99.90;;;;;;5045075;28;20025;-77
2021/06/17 03:45:43;;;;;;;14.95;7.13;;;20.20;99.90;;;;;;5045807;28;20017;-77
2021/06/17 03:48:11;;;;;;;10.55;6.70;;;20.10;99.90;;;;;;5045711;28;20049;-77
2021/06/17 03:50:38;;;;;;;11.43;6.93;;;20.20;99.90;;;;;;5061668;28;20040;-76
2021/06/17 03:53:05;;;;;;;9.93;6.53;;;20.10;99.90;;;;;;5045555;28;20040;-78
2021/06/17 03:55:34;;;;;;;12.55;7.13;;;20.20;99.90;;;;;;5060973;28;20034;-77
2021/06/17 03:58:00;;;;;;;11.52;6.95;;;20.20;99.90;;;;;;5061357;28;20045;-77
2021/06/17 04:00:27;;;;;;;11.02;5.95;;;20.20;99.90;;;;;;5044171;28;20044;-76
2021/06/17 04:02:54;;;;;;;15.68;7.28;;;20.20;99.90;;;;;;5061137;28;20029;-75
2021/06/17 04:05:20;;;;;;;12.00;7.65;;;20.10;99.90;;;;;;5045735;28;20030;-76
2021/06/17 04:07:47;;;;;;;13.15;6.88;;;20.20;99.90;;;;;;5061124;28;20532;-77
2021/06/17 04:10:16;;;;;;;13.70;7.22;;;20.20;99.90;;;;;;5045682;28;20108;-77
2021/06/17 04:12:42;;;;;;;12.07;6.50;;;20.20;99.90;;;;;;5060943;28;20401;-76
2021/06/17 04:15:09;;;;;;;14.15;7.22;;;20.20;99.90;;;;;;5060720;28;20029;-78
2021/06/17 04:17:44;;;;;;;11.65;6.65;;;20.30;99.90;;;;;;5061171;28;20988;-77
2021/06/17 04:20:12;;;;;;;10.55;6.85;;;20.30;99.90;;;;;;5060383;28;20068;-78
2021/06/17 04:22:43;;;;;;;12.02;6.68;;;20.30;99.90;;;;;;5045578;28;20083;-76
2021/06/17 04:25:10;;;;;;;12.80;6.50;;;20.30;99.90;;;;;;5045588;28;20037;-77
2021/06/17 04:27:37;;;;;;;9.40;6.47;;;20.30;99.90;;;;;;5044024;28;20037;-77
2021/06/17 04:30:04;;;;;;;12.13;7.18;;;20.30;99.90;;;;;;5060628;28;20029;-77
2021/06/17 04:32:30;;;;;;;10.07;6.68;;;20.40;99.90;;;;;;5045136;28;20521;-76
2021/06/17 04:34:57;;;;;;;14.68;7.07;;;20.40;99.90;;;;;;5044718;28;20040;-77
2021/06/17 04:37:26;;;;;;;13.30;7.70;;;20.40;99.90;;;;;;5045061;28;20052;-76
2021/06/17 04:39:55;;;;;;;10.23;6.45;;;20.40;99.90;;;;;;5060232;28;20068;-77
2021/06/17 04:42:22;;;;;;;17.48;8.45;;;20.50;99.90;;;;;;5043366;28;20413;-78
2021/06/17 04:44:49;;;;;;;10.25;6.88;;;20.50;99.90;;;;;;5042458;28;20025;-77
2021/06/17 04:47:16;;;;;;;13.98;7.28;;;20.60;99.90;;;;;;5043397;28;20131;-77
2021/06/17 04:49:43;;;;;;;12.35;7.03;;;20.60;99.90;;;;;;5042837;28;20132;-76
2021/06/17 04:52:18;;;;;;;14.15;7.13;;;20.60;99.90;;;;;;5043520;28;20036;-79
2021/06/17 04:54:44;;;;;;;15.18;7.55;;;20.70;99.90;;;;;;5043816;28;20029;-77
2021/06/17 04:57:09;;;;;;;12.82;7.95;;;20.70;99.90;;;;;;5044131;28;20075;-77
2021/06/17 04:59:35;;;;;;;14.88;7.35;;;20.80;99.90;;;;;;5042820;28;20041;-78
2021/06/17 05:02:00;;;;;;;11.07;7.43;;;20.80;99.90;;;;;;5044080;28;20035;-77
2021/06/17 05:04:26;;;;;;;19.17;6.50;;;20.90;99.90;;;;;;5042097;28;20088;-77
2021/06/17 05:12:14;;;;;;;11.25;7.45;;;21.00;99.90;;;;;;5037011;28;20040;-77
2021/06/17 05:14:40;;;;;;;12.68;6.88;;;21.10;99.90;;;;;;5048919;28;20034;-77
2021/06/17 05:17:06;;;;;;;12.80;7.47;;;21.10;99.90;;;;;;5022983;28;20061;-77
2021/06/17 05:19:32;;;;;;;12.45;6.93;;;21.10;99.90;;;;;;5024112;28;20041;-77
2021/06/17 05:21:57;;;;;;;12.48;7.15;;;21.20;99.90;;;;;;5023244;28;20407;-78
2021/06/17 05:24:23;;;;;;;10.95;7.20;;;21.20;99.90;;;;;;5032713;28;20029;-77
2021/06/17 05:26:49;;;;;;;9.82;5.88;;;21.20;99.90;;;;;;5054227;28;20041;-77
2021/06/17 05:29:15;;;;;;;13.77;7.05;;;21.30;99.90;;;;;;5055341;28;20036;-78
2021/06/17 05:31:41;;;;;;;12.10;7.38;;;21.30;99.90;;;;;;5062119;28;20036;-77
2021/06/17 05:34:07;;;;;;;12.65;7.63;;;21.30;99.90;;;;;;5056834;28;20040;-78
2021/06/17 05:36:32;;;;;;;9.95;6.35;;;21.40;99.90;;;;;;5042099;28;20087;-78
2021/06/17 05:38:58;;;;;;;12.63;7.22;;;21.40;99.90;;;;;;5040152;28;20033;-77
2021/06/17 05:41:24;;;;;;;14.95;7.40;;;21.40;99.90;;;;;;5042551;28;20717;-77
2021/06/17 05:43:49;;;;;;;12.35;7.47;;;21.50;99.90;;;;;;5041876;28;20049;-79
2021/06/17 05:46:15;;;;;;;13.30;7.75;;;21.50;99.90;;;;;;5041673;28;20085;-78
2021/06/17 05:48:42;;;;;;;14.48;7.55;;;21.60;99.90;;;;;;5041930;28;20076;-79
2021/06/17 05:51:08;;;;;;;13.18;7.40;;;21.60;99.90;;;;;;5042564;28;20022;-79
2021/06/17 05:53:34;;;;;;;12.10;7.43;;;21.60;99.90;;;;;;5057489;28;20329;-77
2021/06/17 05:56:00;;;;;;;11.60;6.93;;;21.70;99.90;;;;;;5057515;28;20033;-79
2021/06/17 05:58:26;;;;;;;19.75;8.13;;;21.70;99.90;;;;;;5057259;28;20040;-77
2021/06/17 06:00:51;;;;;;;22.70;7.00;;;21.80;99.90;;;;;;5056528;28;20037;-77
2021/06/17 06:03:17;;;;;;;11.77;7.32;;;21.90;99.90;;;;;;5057295;28;20083;-76
2021/06/17 06:05:43;;;;;;;12.50;7.20;;;21.90;99.90;;;;;;5044021;28;20027;-77
2021/06/17 06:08:13;;;;;;;10.82;6.63;;;22.00;99.90;;;;;;5053081;28;20017;-74
2021/06/17 06:10:45;;;;;;;12.70;6.47;;;22.10;99.90;;;;;;5050013;28;20470;-79
2021/06/17 06:13:11;;;;;;;9.90;6.05;;;22.20;99.90;;;;;;5057615;28;20045;-79
2021/06/17 06:15:38;;;;;;;9.93;6.00;;;22.30;99.90;;;;;;5042256;28;20033;-77
2021/06/17 06:18:09;;;;;;;10.57;6.05;;;22.40;99.90;;;;;;5061085;28;20025;-78
2021/06/17 06:20:36;;;;;;;10.88;6.72;;;22.40;99.90;;;;;;5044630;28;20041;-75
2021/06/17 06:23:03;;;;;;;14.90;7.25;;;22.50;99.90;;;;;;5046120;28;20033;-78
2021/06/17 06:25:29;;;;;;;12.95;7.22;;;22.60;99.90;;;;;;5048330;28;20029;-76
2021/06/17 06:27:55;;;;;;;21.35;6.57;;;22.70;99.90;;;;;;5054657;28;20457;-75
2021/06/17 06:30:21;;;;;;;17.38;6.75;;;22.80;99.90;;;;;;5059318;28;20060;-77
2021/06/17 06:32:46;;;;;;;9.63;5.82;;;22.80;99.90;;;;;;5053819;28;20033;-78
2021/06/17 06:35:13;;;;;;;10.65;6.15;;;22.90;99.90;;;;;;5063830;28;20048;-72
2021/06/17 06:37:39;;;;;;;8.43;5.93;;;23.00;99.90;;;;;;5065601;28;20036;-74
2021/06/17 06:40:07;;;;;;;12.40;6.43;;;23.10;99.90;;;;;;5065503;28;20043;-76
2021/06/17 06:42:36;;;;;;;14.60;6.55;;;23.20;99.90;;;;;;5058088;28;20013;-79
2021/06/17 06:45:03;;;;;;;10.13;5.88;;;23.30;99.90;;;;;;5058816;28;20013;-74
2021/06/17 06:47:28;;;;;;;11.45;5.80;;;23.40;99.90;;;;;;5065074;28;20686;-76
2021/06/17 06:49:54;;;;;;;9.80;5.93;;;23.50;99.90;;;;;;5065217;28;20045;-78
2021/06/17 06:52:19;;;;;;;11.90;6.00;;;23.60;99.90;;;;;;5048718;28;20030;-76
2021/06/17 06:54:45;;;;;;;12.88;5.55;;;23.70;99.90;;;;;;5045307;28;20038;-75
2021/06/17 06:57:11;;;;;;;11.65;6.07;;;23.80;99.90;;;;;;5060521;28;20057;-77
2021/06/17 06:59:36;;;;;;;7.55;4.97;;;23.80;99.90;;;;;;5060329;28;20120;-75
2021/06/17 07:02:03;;;;;;;9.98;5.20;;;23.90;99.90;;;;;;5043443;28;20040;-76
2021/06/17 07:04:28;;;;;;;7.82;4.85;;;23.90;99.90;;;;;;5044800;28;20052;-76
2021/06/17 07:06:54;;;;;;;10.73;6.13;;;24.00;99.90;;;;;;5059325;28;20025;-75
2021/06/17 07:09:20;;;;;;;7.63;4.57;;;24.10;99.90;;;;;;5044772;28;20036;-74
2021/06/17 07:11:47;;;;;;;10.68;5.25;;;24.10;99.90;;;;;;5044987;28;20026;-77
2021/06/17 07:14:13;;;;;;;14.10;5.53;;;24.30;99.90;;;;;;5044980;28;20109;-77
2021/06/17 07:16:38;;;;;;;10.10;4.53;;;24.30;99.90;;;;;;5048875;28;20127;-76
2021/06/17 07:19:07;;;;;;;8.00;4.88;;;24.50;99.90;;;;;;5064154;28;20041;-76
2021/06/17 07:21:33;;;;;;;10.43;4.45;;;24.50;99.90;;;;;;5040082;28;20021;-78
2021/06/17 07:23:59;;;;;;;6.18;4.15;;;24.60;99.90;;;;;;5044752;28;20100;-78
2021/06/17 07:26:28;;;;;;;7.30;4.97;;;24.70;99.90;;;;;;5045372;28;20051;-77
2021/06/17 07:28:55;;;;;;;19.17;6.03;;;24.70;99.90;;;;;;5062667;28;20367;-76
2021/06/17 07:31:21;;;;;;;7.82;4.95;;;24.80;99.90;;;;;;5062413;28;20035;-75
2021/06/17 07:33:47;;;;;;;10.57;5.13;;;24.90;99.90;;;;;;5065430;28;20080;-75
2021/06/17 07:36:13;;;;;;;11.55;5.25;;;25.00;99.90;;;;;;5065945;28;20088;-74
2021/06/17 07:38:39;;;;;;;7.88;4.93;;;25.00;99.90;;;;;;5064468;28;20025;-75
2021/06/17 07:41:05;;;;;;;14.32;5.13;;;25.10;99.90;;;;;;5065924;28;20045;-76
2021/06/17 07:43:32;;;;;;;9.15;5.00;;;25.20;99.90;;;;;;5065414;28;20086;-76
2021/06/17 07:45:57;;;;;;;7.20;4.55;;;25.30;99.90;;;;;;5063792;28;20079;-77
2021/06/17 07:48:24;;;;;;;8.15;4.78;;;25.40;99.90;;;;;;5064705;28;20057;-76
2021/06/17 07:50:50;;;;;;;8.65;4.75;;;25.50;99.90;;;;;;5065333;28;20021;-75
2021/06/17 07:53:15;;;;;;;7.53;4.07;;;25.60;99.90;;;;;;5064089;28;20029;-77
2021/06/17 07:55:42;;;;;;;7.70;4.55;;;25.70;99.90;;;;;;5065886;28;20146;-76
2021/06/17 07:58:08;;;;;;;14.43;4.32;;;25.70;99.90;;;;;;5063756;28;20712;-77
2021/06/17 08:00:33;;;;;;;7.45;4.35;;;25.80;99.90;;;;;;5065362;28;20087;-78
2021/06/17 08:02:59;;;;;;;5.78;3.92;;;25.90;99.90;;;;;;5064175;28;20036;-74
2021/06/17 08:05:26;;;;;;;13.00;4.90;;;26.10;99.90;;;;;;5063478;28;20552;-73
2021/06/17 08:07:51;;;;;;;5.75;4.07;;;26.10;99.90;;;;;;5065295;28;20443;-78
2021/06/17 08:10:17;;;;;;;7.65;4.93;;;26.20;99.90;;;;;;5063188;28;20028;-78
2021/06/17 08:12:43;;;;;;;7.15;3.97;;;26.30;99.90;;;;;;5065304;28;20029;-77
2021/06/17 08:15:09;;;;;;;7.32;4.03;;;26.40;99.90;;;;;;5063489;28;20021;-78
2021/06/17 08:17:35;;;;;;;8.32;5.13;;;26.50;99.90;;;;;;5063438;28;20142;-75
2021/06/17 08:20:00;;;;;;;7.57;4.68;;;26.60;99.90;;;;;;5063973;28;20486;-75
2021/06/17 08:22:27;;;;;;;8.23;4.72;;;26.60;99.90;;;;;;5064663;28;20139;-75
2021/06/17 08:24:54;;;;;;;8.25;4.95;;;26.70;99.90;;;;;;5064417;28;20029;-76
2021/06/17 08:27:20;;;;;;;11.18;5.00;;;26.70;99.90;;;;;;5064129;28;20053;-77
2021/06/17 08:29:46;;;;;;;10.00;4.95;;;26.80;99.90;;;;;;5064570;28;20036;-76
2021/06/17 08:32:12;;;;;;;13.25;4.38;;;26.90;99.90;;;;;;5052197;28;20026;-74
2021/06/17 08:34:38;;;;;;;7.32;4.78;;;27.00;99.90;;;;;;5051005;28;20086;-76
2021/06/17 08:37:05;;;;;;;6.20;3.50;;;27.20;99.90;;;;;;5048507;28;20563;-72
2021/06/17 08:39:31;;;;;;;6.40;3.70;;;27.20;99.90;;;;;;5062982;28;20052;-76
2021/06/17 08:41:57;;;;;;;5.68;4.15;;;27.30;99.90;;;;;;5062899;28;20029;-73
2021/06/17 08:44:24;;;;;;;5.65;3.85;;;27.40;99.90;;;;;;5063595;28;20397;-75
2021/06/17 08:46:51;;;;;;;7.80;4.80;;;27.40;99.90;;;;;;5049374;28;20030;-74
2021/06/17 08:49:19;;;;;;;7.88;4.57;;;27.50;99.90;;;;;;5056185;28;20076;-74
2021/06/17 08:51:47;;;;;;;7.03;4.18;;;27.60;99.90;;;;;;5051042;28;20029;-76
2021/06/17 08:54:19;;;;;;;6.15;3.90;;;27.70;99.90;;;;;;5064278;28;20040;-78
2021/06/17 08:56:46;;;;;;;7.25;4.28;;;27.80;99.90;;;;;;5064229;28;20029;-77
2021/06/17 08:59:14;;;;;;;7.20;3.50;;;27.80;99.90;;;;;;5064484;28;20040;-76
2021/06/17 09:01:41;;;;;;;8.52;4.30;;;28.00;99.90;;;;;;5046081;28;20076;-77
2021/06/17 09:04:25;;;;;;;5.75;3.95;;;28.00;99.90;;;;;;5025107;28;20540;-77
2021/06/17 09:07:10;;;;;;;12.52;4.38;;;28.20;99.90;;;;;;5038981;28;20458;-73
2021/06/17 09:09:43;;;;;;;6.10;3.60;;;28.40;99.90;;;;;;5024697;28;20050;-73
2021/06/17 09:12:13;;;;;;;9.10;4.63;;;28.50;99.90;;;;;;5039609;28;20035;-72
2021/06/17 09:14:48;;;;;;;12.90;4.80;;;28.60;99.90;;;;;;5022891;28;20477;-74
2021/06/17 09:17:13;;;;;;;19.85;4.93;;;28.70;99.90;;;;;;5024552;28;20064;-76
2021/06/17 09:19:46;;;;;;;6.25;3.58;;;28.80;99.90;;;;;;5041749;28;20041;-76
2021/06/17 09:22:15;;;;;;;4.95;3.75;;;29.00;99.90;;;;;;5046288;28;20028;-75
2021/06/17 09:24:45;;;;;;;7.35;3.67;;;29.10;99.90;;;;;;5050281;28;20095;-73
2021/06/17 09:27:35;;;;;;;6.88;4.03;;;29.20;99.90;;;;;;5055445;28;20029;-77
2021/06/17 09:30:10;;;;;;;6.88;4.10;;;29.20;99.90;;;;;;5023928;28;20066;-76
2021/06/17 09:32:45;;;;;;;10.05;4.72;;;29.30;99.90;;;;;;5039156;28;20034;-74
2021/06/17 09:35:15;;;;;;;6.97;4.43;;;29.40;99.90;;;;;;5024601;28;20026;-76
2021/06/17 09:37:40;;;;;;;6.18;3.53;;;29.50;99.90;;;;;;5031474;28;20040;-72
2021/06/17 09:40:26;;;;;;;6.93;4.25;;;29.50;99.90;;;;;;5064231;28;20041;-74
2021/06/17 09:42:53;;;;;;;7.57;3.92;;;29.60;99.90;;;;;;5056834;28;20022;-73
2021/06/17 09:45:25;;;;;;;8.85;4.40;;;29.70;99.90;;;;;;5062167;28;20440;-75
2021/06/17 09:47:51;;;;;;;6.78;3.85;;;29.80;99.90;;;;;;5063200;28;20051;-78
2021/06/17 09:50:25;;;;;;;8.90;3.53;;;29.90;99.90;;;;;;5045566;28;20034;-73
2021/06/17 09:52:52;;;;;;;7.05;3.58;;;30.00;99.90;;;;;;5027542;28;20041;-76
2021/06/17 09:55:41;;;;;;;6.43;3.60;;;30.10;99.90;;;;;;5028368;28;20025;-74
2021/06/17 09:58:12;;;;;;;8.77;3.75;;;30.10;99.90;;;;;;5037501;28;20033;-72
2021/06/17 10:00:56;;;;;;;6.75;3.88;;;30.20;99.90;;;;;;5067543;28;20107;-74
2021/06/17 10:03:22;;;;;;;;;;;30.20;99.90;;;;;;5068508;28;20094;-75
2021/06/17 10:05:48;;;;;;;5.40;3.55;;;30.30;99.90;;;;;;5045953;28;19905;-74
2021/06/17 10:08:14;;;;;;;5.00;3.40;;;30.40;99.90;;;;;;5045444;28;20029;-76
2021/06/17 10:10:40;;;;;;;6.05;3.70;;;30.50;99.90;;;;;;5057332;28;20029;-73
2021/06/17 10:13:08;;;;;;;5.95;3.33;;;30.60;99.90;;;;;;5051609;28;20036;-74
2021/06/17 10:15:34;;;;;;;5.40;3.28;;;30.70;99.90;;;;;;5067854;28;20033;-73
2021/06/17 10:18:00;;;;;;;6.40;3.42;;;30.80;99.90;;;;;;5067245;28;20029;-78
2021/06/17 10:20:26;;;;;;;6.13;3.65;;;30.80;99.90;;;;;;5049288;28;20036;-74
2021/06/17 10:22:53;;;;;;;8.50;4.13;;;30.80;99.90;;;;;;5062765;28;20037;-74
2021/06/17 10:25:28;;;;;;;6.75;3.25;;;30.80;99.90;;;;;;5046923;28;20024;-73
2021/06/17 10:28:01;;;;;;;4.72;3.10;;;31.00;99.90;;;;;;5056345;28;20021;-75
2021/06/17 10:30:57;;;;;;;10.07;3.38;;;31.20;99.90;;;;;;5047520;28;20487;-76
2021/06/17 10:33:31;;;;;;;6.35;4.10;;;31.30;99.90;;;;;;5042005;28;20037;-74
2021/06/17 10:36:16;;;;;;;6.32;3.53;;;31.40;99.90;;;;;;5057192;28;20067;-74
2021/06/17 10:39:14;;;;;;;6.07;3.40;;;31.50;99.90;;;;;;5066568;28;20059;-76
2021/06/17 10:41:46;;;;;;;5.13;3.05;;;31.60;99.90;;;;;;5067057;28;20051;-76
2021/06/17 10:44:41;;;;;;;4.75;2.90;;;31.70;99.90;;;;;;5054474;28;20060;-73
2021/06/17 10:47:07;;;;;;;6.05;3.45;;;31.80;99.90;;;;;;5046453;28;20092;-73
2021/06/17 10:49:42;;;;;;;5.78;3.53;;;31.90;99.90;;;;;;5046706;28;20419;-71
2021/06/17 10:52:25;;;;;;;7.55;3.03;;;32.00;99.90;;;;;;5047198;28;20025;-77
2021/06/17 10:55:09;;;;;;;6.82;3.30;;;32.10;99.90;;;;;;5044771;28;20093;-76
2021/06/17 10:57:48;;;;;;;3.60;2.83;;;32.30;99.90;;;;;;5046791;28;20024;-72
2021/06/17 11:03:08;;;;;;;5.15;2.70;;;32.60;99.90;;;;;;5065420;28;20045;-72
2021/06/17 11:05:34;;;;;;;5.30;2.40;;;32.70;99.90;;;;;;5065220;28;20537;-74
2021/06/17 11:08:24;;;;;;;4.25;2.58;;;32.90;99.90;;;;;;5066473;28;20025;-72
2021/06/17 11:10:53;;;;;;;8.52;3.33;;;33.00;99.90;;;;;;5065707;28;20033;-73
2021/06/17 11:13:29;;;;;;;4.50;2.97;;;33.10;99.90;;;;;;5064667;28;20029;-73
2021/06/17 11:16:00;;;;;;;4.55;2.95;;;33.20;99.90;;;;;;5066191;28;20025;-74
2021/06/17 11:18:49;;;;;;;9.13;3.00;;;33.20;99.90;;;;;;5066702;28;20025;-74
2021/06/17 11:21:24;;;;;;;5.88;3.13;;;33.40;99.90;;;;;;5060587;28;20057;-74
2021/06/17 11:23:53;;;;;;;4.15;2.38;;;33.40;99.90;;;;;;5046092;28;20574;-75
2021/06/17 11:26:48;;;;;;;6.82;2.97;;;33.40;99.90;;;;;;5061447;28;20021;-74
2021/06/17 11:29:19;;;;;;;5.03;2.47;;;33.40;99.90;;;;;;5024887;28;20026;-75
2021/06/17 11:31:54;;;;;;;4.75;2.63;;;33.50;99.90;;;;;;5026417;28;20026;-71
2021/06/17 11:34:41;;;;;;;3.40;2.20;;;33.60;99.60;;;;;;5025418;28;20037;-73
2021/06/17 11:37:15;;;;;;;3.40;2.10;;;33.70;99.30;;;;;;5023739;28;20066;-74
2021/06/17 11:39:41;;;;;;;11.57;2.95;;;33.70;99.20;;;;;;5039439;28;20038;-73
2021/06/17 11:42:19;;;;;;;2.75;1.88;;;33.90;99.90;;;;;;5025683;28;20026;-73
2021/06/17 11:44:56;;;;;;;6.32;2.25;;;34.20;98.00;;;;;;5035920;28;20082;-75
2021/06/17 11:47:21;;;;;;;3.15;2.20;;;34.30;98.80;;;;;;5049708;28;20033;-77
2021/06/17 11:49:47;;;;;;;3.80;2.17;;;34.50;97.40;;;;;;5050555;28;20073;-73
2021/06/17 11:52:15;;;;;;;5.95;2.17;;;34.60;98.20;;;;;;5044180;28;20065;-74
2021/06/17 11:54:45;;;;;;;4.70;2.50;;;34.70;96.00;;;;;;5044929;28;20029;-73
2021/06/17 11:57:12;;;;;;;3.33;2.35;;;34.80;96.30;;;;;;5045426;28;20034;-74
2021/06/17 11:59:41;;;;;;;2.05;1.70;;;35.00;95.80;;;;;;5045481;28;20474;-73
2021/06/17 12:02:17;;;;;;;3.55;2.50;;;35.20;95.50;;;;;;5043920;28;20030;-73
2021/06/17 12:07:27;;;;;;;3.28;2.10;;;35.20;93.90;;;;;;5059894;28;20068;-71
2021/06/17 12:10:24;;;;;;;2.90;1.98;;;35.20;94.80;;;;;;5052278;28;20021;-73
2021/06/17 12:12:52;;;;;;;4.05;2.10;;;35.20;92.50;;;;;;5062412;28;20033;-71
2021/06/17 12:15:23;;;;;;;1.90;1.30;;;35.40;93.60;;;;;;5050943;28;20038;-70
2021/06/17 12:17:53;;;;;;;3.13;1.95;;;35.50;93.10;;;;;;5044777;28;20032;-70
2021/06/17 12:20:36;;;;;;;6.55;2.05;;;35.70;92.80;;;;;;5044805;28;20393;-72
2021/06/17 12:23:03;;;;;;;7.60;2.00;;;35.90;91.70;;;;;;5059308;28;20033;-70
2021/06/17 12:25:30;;;;;;;2.25;1.60;;;36.00;91.90;;;;;;5044503;28;20527;-71
2021/06/17 12:27:59;;;;;;;3.58;2.08;;;36.10;91.90;;;;;;5059613;28;20044;-76
2021/06/17 12:30:31;;;;;;;5.93;2.28;;;36.10;90.80;;;;;;5059588;28;20093;-74
2021/06/17 12:33:09;;;;;;;12.00;1.95;;;36.30;91.70;;;;;;5044646;28;20025;-72
2021/06/17 12:35:46;;;;;;;7.68;2.33;;;36.20;90.20;;;;;;5044502;28;20051;-74
2021/06/17 12:38:27;;;;;;;3.45;2.10;;;36.20;90.00;;;;;;5044227;28;20065;-75
2021/06/17 12:40:54;;;;;;;4.88;2.35;;;36.20;90.20;;;;;;5044237;28;20402;-74
2021/06/17 12:43:25;;;;;;;7.15;2.33;;;36.30;90.10;;;;;;5044410;28;20029;-75
2021/06/17 12:46:05;;;;;;;4.80;1.88;;;36.40;90.30;;;;;;5043286;28;20037;-72
2021/06/17 12:54:02;;;;;;;4.30;2.28;;;36.70;86.90;;;;;;5043877;28;20037;-73
2021/06/17 12:56:28;;;;;;;2.25;1.90;;;36.70;86.50;;;;;;5040692;28;20089;-77
2021/06/17 12:58:54;;;;;;;2.75;1.80;;;36.90;86.70;;;;;;5043366;28;20026;-75
2021/06/17 13:01:24;;;;;;;4.10;2.05;;;36.90;87.10;;;;;;5042244;28;20105;-77
2021/06/17 13:03:53;;;;;;;21.27;1.83;;;36.90;86.90;;;;;;5042289;28;20045;-77
2021/06/17 13:06:38;;;;;;;7.10;2.25;;;36.90;86.00;;;;;;5042207;28;20029;-71
2021/06/17 13:09:21;;;;;;;14.90;2.45;;;36.70;84.20;;;;;;5042098;28;20032;-76
2021/06/17 13:12:02;;;;;;;4.00;1.83;;;36.60;86.00;;;;;;5042292;28;20021;-73